sensor_id;sensor_type;location;lat;lon;timestamp;pressure;altitude;pressure_sealevel;temperature;humidity
52105;BME280;38103;42.776;23.112;2022-09-13T00:01:42;93821.59;;;12.27;90.34
52105;BME280;38103;42.776;23.112;2022-09-13T00:04:07;93814.28;;;12.34;90.12
52105;BME280;38103;42.776;23.112;2022-09-13T00:06:33;93805.97;;;12.25;90.35
52105;BME280;38103;42.776;23.112;2022-09-13T00:08:59;93815.66;;;12.37;90.16
52105;BME280;38103;42.776;23.112;2022-09-13T00:11:27;93815.44;;;12.44;90.09
52105;BME280;38103;42.776;23.112;2022-09-13T00:13:53;93813.88;;;12.48;89.75
52105;BME280;38103;42.776;23.112;2022-09-13T00:16:20;93810.53;;;12.58;89.13
52105;BME280;38103;42.776;23.112;2022-09-13T00:18:46;93801.25;;;12.60;88.70
52105;BME280;38103;42.776;23.112;2022-09-13T00:21:16;93774.00;;;12.37;88.57
52105;BME280;38103;42.776;23.112;2022-09-13T00:23:43;93801.78;;;12.57;88.65
52105;BME280;38103;42.776;23.112;2022-09-13T00:26:14;93803.88;;;12.55;88.78
52105;BME280;38103;42.776;23.112;2022-09-13T00:28:41;93796.75;;;12.61;88.57
52105;BME280;38103;42.776;23.112;2022-09-13T00:31:08;93790.66;;;12.60;88.34
52105;BME280;38103;42.776;23.112;2022-09-13T00:33:33;93788.53;;;12.57;88.49
52105;BME280;38103;42.776;23.112;2022-09-13T00:36:04;93766.41;;;12.46;88.36
52105;BME280;38103;42.776;23.112;2022-09-13T00:38:29;93780.63;;;12.62;88.16
52105;BME280;38103;42.776;23.112;2022-09-13T00:40:55;93787.28;;;12.65;88.29
52105;BME280;38103;42.776;23.112;2022-09-13T00:43:43;93779.56;;;12.63;88.26
52105;BME280;38103;42.776;23.112;2022-09-13T00:46:13;93795.97;;;12.60;88.45
52105;BME280;38103;42.776;23.112;2022-09-13T00:48:40;93789.34;;;12.63;88.14
52105;BME280;38103;42.776;23.112;2022-09-13T00:51:07;93791.50;;;12.66;87.77
52105;BME280;38103;42.776;23.112;2022-09-13T00:53:38;93797.34;;;12.68;87.40
52105;BME280;38103;42.776;23.112;2022-09-13T00:56:08;93795.78;;;12.67;87.22
52105;BME280;38103;42.776;23.112;2022-09-13T00:58:42;93793.13;;;12.67;87.02
52105;BME280;38103;42.776;23.112;2022-09-13T01:01:13;93782.75;;;12.66;87.03
52105;BME280;38103;42.776;23.112;2022-09-13T01:03:41;93782.75;;;12.66;87.42
52105;BME280;38103;42.776;23.112;2022-09-13T01:06:10;93751.75;;;12.38;87.11
52105;BME280;38103;42.776;23.112;2022-09-13T01:08:39;93786.38;;;12.54;87.50
52105;BME280;38103;42.776;23.112;2022-09-13T01:11:09;93784.22;;;12.51;88.27
52105;BME280;38103;42.776;23.112;2022-09-13T01:13:37;93740.50;;;12.26;88.55
52105;BME280;38103;42.776;23.112;2022-09-13T01:16:04;93777.25;;;12.45;89.32
52105;BME280;38103;42.776;23.112;2022-09-13T01:18:29;93779.66;;;12.46;89.28
52105;BME280;38103;42.776;23.112;2022-09-13T01:39:59;93774.97;;;12.26;89.31
52105;BME280;38103;42.776;23.112;2022-09-13T01:47:56;93778.53;;;12.14;90.09
52105;BME280;38103;42.776;23.112;2022-09-13T01:55:24;93769.84;;;12.19;89.93
52105;BME280;38103;42.776;23.112;2022-09-13T01:58:06;93762.00;;;12.07;90.48
52105;BME280;38103;42.776;23.112;2022-09-13T02:00:42;93765.06;;;12.16;89.79
52105;BME280;38103;42.776;23.112;2022-09-13T02:03:25;93758.47;;;12.18;88.89
52105;BME280;38103;42.776;23.112;2022-09-13T02:05:55;93765.28;;;12.14;88.66
52105;BME280;38103;42.776;23.112;2022-09-13T02:08:31;93771.19;;;11.99;89.31
52105;BME280;38103;42.776;23.112;2022-09-13T02:11:06;93774.91;;;11.98;88.83
52105;BME280;38103;42.776;23.112;2022-09-13T02:13:37;93772.50;;;11.96;88.69
52105;BME280;38103;42.776;23.112;2022-09-13T02:16:16;93728.47;;;11.68;88.99
52105;BME280;38103;42.776;23.112;2022-09-13T02:18:47;93759.88;;;11.81;89.75
52105;BME280;38103;42.776;23.112;2022-09-13T02:21:20;93764.84;;;11.78;90.27
52105;BME280;38103;42.776;23.112;2022-09-13T02:23:50;93763.25;;;11.77;90.09
52105;BME280;38103;42.776;23.112;2022-09-13T02:26:20;93754.03;;;11.79;90.20
52105;BME280;38103;42.776;23.112;2022-09-13T02:28:50;93757.47;;;11.80;90.47
52105;BME280;38103;42.776;23.112;2022-09-13T02:31:20;93767.56;;;11.83;90.33
52105;BME280;38103;42.776;23.112;2022-09-13T02:33:53;93766.53;;;11.84;90.05
52105;BME280;38103;42.776;23.112;2022-09-13T02:36:23;93770.78;;;11.85;90.54
52105;BME280;38103;42.776;23.112;2022-09-13T02:38:53;93762.47;;;11.76;91.01
52105;BME280;38103;42.776;23.112;2022-09-13T02:41:38;93725.88;;;11.50;91.19
52105;BME280;38103;42.776;23.112;2022-09-13T02:44:18;93759.25;;;11.74;91.30
52105;BME280;38103;42.776;23.112;2022-09-13T02:46:57;93762.59;;;11.64;91.48
52105;BME280;38103;42.776;23.112;2022-09-13T02:53:03;93767.81;;;11.59;91.00
52105;BME280;38103;42.776;23.112;2022-09-13T02:58:55;93771.44;;;11.53;91.14
52105;BME280;38103;42.776;23.112;2022-09-13T03:01:25;93731.47;;;11.32;90.92
52105;BME280;38103;42.776;23.112;2022-09-13T03:03:51;93767.19;;;11.51;90.90
52105;BME280;38103;42.776;23.112;2022-09-13T03:06:27;93772.09;;;11.43;91.06
52105;BME280;38103;42.776;23.112;2022-09-13T03:08:59;93769.78;;;11.46;90.82
52105;BME280;38103;42.776;23.112;2022-09-13T03:29:44;93767.69;;;11.48;89.52
52105;BME280;38103;42.776;23.112;2022-09-13T03:35:01;93758.59;;;11.44;89.13
52105;BME280;38103;42.776;23.112;2022-09-13T03:37:43;93760.16;;;11.40;89.28
52105;BME280;38103;42.776;23.112;2022-09-13T03:40:16;93765.94;;;11.37;89.21
52105;BME280;38103;42.776;23.112;2022-09-13T03:45:42;93764.19;;;11.25;89.67
52105;BME280;38103;42.776;23.112;2022-09-13T03:48:09;93768.94;;;11.23;89.68
52105;BME280;38103;42.776;23.112;2022-09-13T03:50:36;93766.78;;;11.20;89.52
52105;BME280;38103;42.776;23.112;2022-09-13T03:53:07;93769.66;;;11.18;90.20
52105;BME280;38103;42.776;23.112;2022-09-13T03:55:34;93760.34;;;11.16;90.31
52105;BME280;38103;42.776;23.112;2022-09-13T03:58:02;93765.63;;;11.16;90.62
52105;BME280;38103;42.776;23.112;2022-09-13T04:00:28;93761.34;;;11.10;90.81
52105;BME280;38103;42.776;23.112;2022-09-13T04:02:53;93774.50;;;11.04;91.43
52105;BME280;38103;42.776;23.112;2022-09-13T04:05:19;93768.56;;;10.97;91.72
52105;BME280;38103;42.776;23.112;2022-09-13T04:07:45;93769.38;;;10.98;91.51
52105;BME280;38103;42.776;23.112;2022-09-13T04:10:11;93772.25;;;10.96;91.25
52105;BME280;38103;42.776;23.112;2022-09-13T04:12:37;93767.41;;;10.93;90.96
52105;BME280;38103;42.776;23.112;2022-09-13T04:15:04;93740.53;;;10.61;91.46
52105;BME280;38103;42.776;23.112;2022-09-13T04:17:30;93770.50;;;10.84;91.65
52105;BME280;38103;42.776;23.112;2022-09-13T04:19:55;93762.88;;;10.71;92.42
52105;BME280;38103;42.776;23.112;2022-09-13T04:22:20;93769.81;;;10.77;92.69
52105;BME280;38103;42.776;23.112;2022-09-13T04:24:46;93774.63;;;10.80;92.63
52105;BME280;38103;42.776;23.112;2022-09-13T04:27:11;93768.41;;;10.87;92.98
52105;BME280;38103;42.776;23.112;2022-09-13T04:29:37;93778.00;;;10.93;92.83
52105;BME280;38103;42.776;23.112;2022-09-13T04:32:02;93776.72;;;10.95;93.40
52105;BME280;38103;42.776;23.112;2022-09-13T04:34:28;93786.09;;;11.03;93.26
52105;BME280;38103;42.776;23.112;2022-09-13T04:36:54;93779.78;;;11.04;93.26
52105;BME280;38103;42.776;23.112;2022-09-13T04:39:20;93783.53;;;11.09;93.06
52105;BME280;38103;42.776;23.112;2022-09-13T04:41:46;93783.13;;;11.17;93.07
52105;BME280;38103;42.776;23.112;2022-09-13T04:44:15;93783.84;;;11.29;92.35
52105;BME280;38103;42.776;23.112;2022-09-13T04:46:41;93784.97;;;11.34;92.01
52105;BME280;38103;42.776;23.112;2022-09-13T04:49:08;93785.72;;;11.51;91.46
52105;BME280;38103;42.776;23.112;2022-09-13T04:51:34;93792.53;;;11.65;91.24
52105;BME280;38103;42.776;23.112;2022-09-13T04:53:59;93783.97;;;11.80;90.51
52105;BME280;38103;42.776;23.112;2022-09-13T04:56:25;93783.09;;;11.96;89.85
52105;BME280;38103;42.776;23.112;2022-09-13T04:58:52;93787.41;;;12.03;89.34
52105;BME280;38103;42.776;23.112;2022-09-13T05:01:18;93799.66;;;12.09;88.15
52105;BME280;38103;42.776;23.112;2022-09-13T05:03:43;93806.03;;;12.08;88.03
52105;BME280;38103;42.776;23.112;2022-09-13T05:06:11;93763.19;;;11.94;87.72
52105;BME280;38103;42.776;23.112;2022-09-13T05:08:37;93807.97;;;12.40;87.70
52105;BME280;38103;42.776;23.112;2022-09-13T05:11:04;93800.56;;;12.43;86.29
52105;BME280;38103;42.776;23.112;2022-09-13T05:13:31;93799.78;;;12.70;86.02
52105;BME280;38103;42.776;23.112;2022-09-13T05:15:58;93802.47;;;12.75;84.84
52105;BME280;38103;42.776;23.112;2022-09-13T05:18:28;93797.16;;;12.75;84.42
52105;BME280;38103;42.776;23.112;2022-09-13T05:20:55;93800.28;;;12.67;83.86
52105;BME280;38103;42.776;23.112;2022-09-13T05:23:25;93805.25;;;12.91;84.61
52105;BME280;38103;42.776;23.112;2022-09-13T05:25:55;93809.03;;;13.38;83.47
52105;BME280;38103;42.776;23.112;2022-09-13T05:28:22;93789.84;;;13.64;81.10
52105;BME280;38103;42.776;23.112;2022-09-13T05:30:58;93800.19;;;14.25;79.82
52105;BME280;38103;42.776;23.112;2022-09-13T05:33:25;93806.13;;;14.79;77.51
52105;BME280;38103;42.776;23.112;2022-09-13T05:35:51;93803.50;;;15.16;74.50
52105;BME280;38103;42.776;23.112;2022-09-13T05:38:17;93799.78;;;15.17;74.13
52105;BME280;38103;42.776;23.112;2022-09-13T05:40:42;93804.59;;;15.10;73.96
52105;BME280;38103;42.776;23.112;2022-09-13T05:43:08;93795.00;;;15.29;74.85
52105;BME280;38103;42.776;23.112;2022-09-13T05:45:33;93804.56;;;15.41;74.76
52105;BME280;38103;42.776;23.112;2022-09-13T05:47:58;93807.25;;;15.30;73.26
52105;BME280;38103;42.776;23.112;2022-09-13T06:02:08;93805.66;;;17.48;65.75
52105;BME280;38103;42.776;23.112;2022-09-13T06:04:34;93758.59;;;16.88;66.07
52105;BME280;38103;42.776;23.112;2022-09-13T06:07:00;93806.78;;;17.07;66.68
52105;BME280;38103;42.776;23.112;2022-09-13T06:09:25;93810.28;;;17.02;67.83
52105;BME280;38103;42.776;23.112;2022-09-13T06:11:50;93804.94;;;17.02;67.60
52105;BME280;38103;42.776;23.112;2022-09-13T06:14:16;93805.28;;;17.30;66.54
52105;BME280;38103;42.776;23.112;2022-09-13T06:16:41;93811.34;;;17.41;65.62
52105;BME280;38103;42.776;23.112;2022-09-13T06:19:07;93773.59;;;16.78;65.83
52105;BME280;38103;42.776;23.112;2022-09-13T06:21:33;93815.38;;;16.58;67.68
52105;BME280;38103;42.776;23.112;2022-09-13T06:23:58;93796.28;;;16.40;68.07
52105;BME280;38103;42.776;23.112;2022-09-13T06:26:25;93810.72;;;16.29;68.31
52105;BME280;38103;42.776;23.112;2022-09-13T06:28:53;93819.06;;;16.17;69.70
52105;BME280;38103;42.776;23.112;2022-09-13T06:31:21;93693.09;;;15.74;69.11
52105;BME280;38103;42.776;23.112;2022-09-13T06:33:47;93823.97;;;16.95;68.40
52105;BME280;38103;42.776;23.112;2022-09-13T06:36:17;93826.47;;;17.51;65.05
52105;BME280;38103;42.776;23.112;2022-09-13T06:38:44;93828.84;;;17.83;63.28
52105;BME280;38103;42.776;23.112;2022-09-13T06:41:12;93822.63;;;17.63;62.68
52105;BME280;38103;42.776;23.112;2022-09-13T06:43:38;93821.78;;;17.38;63.24
52105;BME280;38103;42.776;23.112;2022-09-13T06:46:09;93771.59;;;17.00;63.08
52105;BME280;38103;42.776;23.112;2022-09-13T06:48:38;93830.31;;;17.40;63.45
52105;BME280;38103;42.776;23.112;2022-09-13T06:51:06;93814.38;;;17.59;63.07
52105;BME280;38103;42.776;23.112;2022-09-13T06:53:32;93830.84;;;17.96;63.52
52105;BME280;38103;42.776;23.112;2022-09-13T06:56:14;93841.22;;;18.28;61.55
52105;BME280;38103;42.776;23.112;2022-09-13T06:58:41;93836.41;;;18.49;60.30
52105;BME280;38103;42.776;23.112;2022-09-13T07:06:31;93821.38;;;18.73;59.80
52105;BME280;38103;42.776;23.112;2022-09-13T07:08:58;93812.19;;;18.98;58.30
52105;BME280;38103;42.776;23.112;2022-09-13T07:11:27;93846.19;;;19.37;56.32
52105;BME280;38103;42.776;23.112;2022-09-13T07:13:55;93848.63;;;19.67;55.94
52105;BME280;38103;42.776;23.112;2022-09-13T07:16:23;93845.63;;;20.02;55.61
52105;BME280;38103;42.776;23.112;2022-09-13T07:18:54;93844.69;;;19.92;53.68
52105;BME280;38103;42.776;23.112;2022-09-13T07:21:20;93851.22;;;19.58;55.66
52105;BME280;38103;42.776;23.112;2022-09-13T07:23:46;93781.47;;;19.43;55.27
52105;BME280;38103;42.776;23.112;2022-09-13T07:26:12;93853.91;;;20.19;55.20
52105;BME280;38103;42.776;23.112;2022-09-13T07:28:40;93852.91;;;20.43;54.15
52105;BME280;38103;42.776;23.112;2022-09-13T07:31:13;93853.56;;;20.63;53.72
52105;BME280;38103;42.776;23.112;2022-09-13T07:33:40;93857.81;;;20.64;52.68
52105;BME280;38103;42.776;23.112;2022-09-13T07:36:07;93860.59;;;20.73;52.36
52105;BME280;38103;42.776;23.112;2022-09-13T07:38:35;93857.81;;;20.64;52.07
52105;BME280;38103;42.776;23.112;2022-09-13T07:41:01;93860.22;;;20.52;51.78
52105;BME280;38103;42.776;23.112;2022-09-13T07:43:30;93855.06;;;20.56;51.80
52105;BME280;38103;42.776;23.112;2022-09-13T07:46:10;93814.41;;;20.48;52.09
52105;BME280;38103;42.776;23.112;2022-09-13T07:48:38;93856.78;;;20.88;50.84
52105;BME280;38103;42.776;23.112;2022-09-13T07:51:14;93856.06;;;20.97;53.03
52105;BME280;38103;42.776;23.112;2022-09-13T07:53:42;93861.94;;;20.99;51.50
52105;BME280;38103;42.776;23.112;2022-09-13T07:56:10;93847.94;;;21.25;50.19
52105;BME280;38103;42.776;23.112;2022-09-13T07:58:37;93860.91;;;21.23;49.81
52105;BME280;38103;42.776;23.112;2022-09-13T08:01:06;93855.81;;;20.84;49.03
52105;BME280;38103;42.776;23.112;2022-09-13T08:03:33;93858.78;;;20.83;49.93
52105;BME280;38103;42.776;23.112;2022-09-13T08:05:59;93854.44;;;20.73;48.13
52105;BME280;38103;42.776;23.112;2022-09-13T08:08:25;93864.38;;;20.86;49.92
52105;BME280;38103;42.776;23.112;2022-09-13T08:10:51;93853.78;;;20.90;48.51
52105;BME280;38103;42.776;23.112;2022-09-13T08:13:16;93854.59;;;20.91;45.79
52105;BME280;38103;42.776;23.112;2022-09-13T08:15:42;93854.28;;;21.06;47.22
52105;BME280;38103;42.776;23.112;2022-09-13T08:18:08;93847.59;;;21.18;48.04
52105;BME280;38103;42.776;23.112;2022-09-13T08:20:37;93847.81;;;21.07;48.28
52105;BME280;38103;42.776;23.112;2022-09-13T08:23:04;93846.03;;;20.88;47.20
52105;BME280;38103;42.776;23.112;2022-09-13T08:25:34;93846.69;;;20.71;44.95
52105;BME280;38103;42.776;23.112;2022-09-13T08:28:08;93844.44;;;20.87;47.67
52105;BME280;38103;42.776;23.112;2022-09-13T08:30:35;93845.28;;;20.74;48.28
52105;BME280;38103;42.776;23.112;2022-09-13T08:33:04;93844.56;;;20.82;46.73
52105;BME280;38103;42.776;23.112;2022-09-13T08:35:30;93839.88;;;21.02;44.74
52105;BME280;38103;42.776;23.112;2022-09-13T08:37:57;93840.00;;;21.20;44.50
52105;BME280;38103;42.776;23.112;2022-09-13T08:40:24;93839.41;;;21.23;45.68
52105;BME280;38103;42.776;23.112;2022-09-13T08:45:26;93810.91;;;21.22;43.59
52105;BME280;38103;42.776;23.112;2022-09-13T08:47:56;93832.66;;;21.12;43.76
52105;BME280;38103;42.776;23.112;2022-09-13T08:50:29;93835.28;;;20.88;45.61
52105;BME280;38103;42.776;23.112;2022-09-13T08:58:34;93830.34;;;20.82;46.83
52105;BME280;38103;42.776;23.112;2022-09-13T09:01:34;93829.91;;;20.88;44.95
52105;BME280;38103;42.776;23.112;2022-09-13T09:09:34;93836.75;;;20.72;47.69
52105;BME280;38103;42.776;23.112;2022-09-13T09:14:38;93843.47;;;20.83;45.52
52105;BME280;38103;42.776;23.112;2022-09-13T09:17:17;93840.94;;;21.01;44.97
52105;BME280;38103;42.776;23.112;2022-09-13T09:19:59;93835.78;;;21.05;46.71
52105;BME280;38103;42.776;23.112;2022-09-13T09:22:31;93831.25;;;21.14;46.56
52105;BME280;38103;42.776;23.112;2022-09-13T09:24:59;93833.13;;;21.14;44.91
52105;BME280;38103;42.776;23.112;2022-09-13T09:27:24;93830.94;;;20.79;44.67
52105;BME280;38103;42.776;23.112;2022-09-13T09:29:53;93834.13;;;20.81;44.98
52105;BME280;38103;42.776;23.112;2022-09-13T09:37:35;93818.13;;;21.36;45.00
52105;BME280;38103;42.776;23.112;2022-09-13T09:40:04;93812.50;;;21.46;44.38
52105;BME280;38103;42.776;23.112;2022-09-13T09:42:45;93813.94;;;21.52;45.46
52105;BME280;38103;42.776;23.112;2022-09-13T09:45:26;93817.88;;;21.46;43.61
52105;BME280;38103;42.776;23.112;2022-09-13T09:47:53;93817.25;;;21.26;42.59
52105;BME280;38103;42.776;23.112;2022-09-13T09:50:25;93817.25;;;21.26;43.11
52105;BME280;38103;42.776;23.112;2022-09-13T09:53:11;93815.56;;;21.30;41.94
52105;BME280;38103;42.776;23.112;2022-09-13T09:55:48;93757.97;;;20.62;42.24
52105;BME280;38103;42.776;23.112;2022-09-13T09:58:16;93800.84;;;20.91;43.45
52105;BME280;38103;42.776;23.112;2022-09-13T10:00:56;93799.69;;;20.83;43.12
52105;BME280;38103;42.776;23.112;2022-09-13T10:03:27;93803.44;;;20.59;42.54
52105;BME280;38103;42.776;23.112;2022-09-13T10:06:22;93795.19;;;20.55;41.68
52105;BME280;38103;42.776;23.112;2022-09-13T10:08:58;93777.38;;;20.59;42.51
52105;BME280;38103;42.776;23.112;2022-09-13T10:11:48;93797.19;;;20.49;39.70
52105;BME280;38103;42.776;23.112;2022-09-13T10:14:42;93785.25;;;20.41;42.37
52105;BME280;38103;42.776;23.112;2022-09-13T10:17:24;93781.88;;;20.50;43.13
52105;BME280;38103;42.776;23.112;2022-09-13T10:22:27;93785.63;;;20.49;41.91
52105;BME280;38103;42.776;23.112;2022-09-13T10:24:53;93757.22;;;20.34;41.89
52105;BME280;38103;42.776;23.112;2022-09-13T10:27:31;93778.84;;;20.65;39.47
52105;BME280;38103;42.776;23.112;2022-09-13T10:29:59;93751.25;;;20.51;42.16
52105;BME280;38103;42.776;23.112;2022-09-13T10:32:27;93784.72;;;20.91;41.23
52105;BME280;38103;42.776;23.112;2022-09-13T10:34:54;93782.53;;;20.93;40.15
52105;BME280;38103;42.776;23.112;2022-09-13T10:37:29;93771.78;;;20.93;38.64
52105;BME280;38103;42.776;23.112;2022-09-13T10:39:59;93766.78;;;21.00;42.70
52105;BME280;38103;42.776;23.112;2022-09-13T10:42:27;93734.66;;;20.95;43.35
52105;BME280;38103;42.776;23.112;2022-09-13T10:45:24;93764.75;;;21.29;42.80
52105;BME280;38103;42.776;23.112;2022-09-13T10:47:54;93764.47;;;21.30;39.93
52105;BME280;38103;42.776;23.112;2022-09-13T10:50:26;93770.81;;;21.35;41.75
52105;BME280;38103;42.776;23.112;2022-09-13T10:52:54;93757.69;;;21.33;41.54
52105;BME280;38103;42.776;23.112;2022-09-13T11:00:40;93769.88;;;21.07;41.90
52105;BME280;38103;42.776;23.112;2022-09-13T11:06:46;93763.00;;;21.24;40.33
52105;BME280;38103;42.776;23.112;2022-09-13T11:15:34;93754.06;;;21.38;41.72
52105;BME280;38103;42.776;23.112;2022-09-13T11:20:53;93760.00;;;21.58;41.18
52105;BME280;38103;42.776;23.112;2022-09-13T11:32:37;93749.19;;;21.81;40.24
52105;BME280;38103;42.776;23.112;2022-09-13T11:35:29;93734.31;;;21.74;37.69
52105;BME280;38103;42.776;23.112;2022-09-13T11:38:11;93754.41;;;21.77;40.85
52105;BME280;38103;42.776;23.112;2022-09-13T11:40:52;93752.81;;;21.76;41.68
52105;BME280;38103;42.776;23.112;2022-09-13T11:43:29;93746.28;;;21.68;39.95
52105;BME280;38103;42.776;23.112;2022-09-13T11:57:33;93744.44;;;21.77;40.63
52105;BME280;38103;42.776;23.112;2022-09-13T12:00:03;93700.03;;;21.48;40.08
52105;BME280;38103;42.776;23.112;2022-09-13T12:02:43;93746.16;;;21.73;40.72
52105;BME280;38103;42.776;23.112;2022-09-13T12:05:18;93745.69;;;21.71;41.21
52105;BME280;38103;42.776;23.112;2022-09-13T12:07:55;93743.81;;;21.81;42.33
52105;BME280;38103;42.776;23.112;2022-09-13T12:10:28;93732.69;;;21.73;40.56
52105;BME280;38103;42.776;23.112;2022-09-13T12:12:55;93744.25;;;21.74;40.12
52105;BME280;38103;42.776;23.112;2022-09-13T12:15:38;93746.97;;;21.83;39.86
52105;BME280;38103;42.776;23.112;2022-09-13T12:18:25;93744.28;;;21.83;41.18
52105;BME280;38103;42.776;23.112;2022-09-13T12:20:58;93739.97;;;21.64;38.44
52105;BME280;38103;42.776;23.112;2022-09-13T12:23:35;93738.00;;;21.55;42.67
52105;BME280;38103;42.776;23.112;2022-09-13T12:32:08;93706.47;;;21.06;40.61
52105;BME280;38103;42.776;23.112;2022-09-13T12:48:12;93734.84;;;20.75;42.83
52105;BME280;38103;42.776;23.112;2022-09-13T12:50:49;93731.44;;;20.84;43.72
52105;BME280;38103;42.776;23.112;2022-09-13T13:01:26;93736.50;;;21.08;44.42
52105;BME280;38103;42.776;23.112;2022-09-13T13:04:14;93736.94;;;21.02;42.22
52105;BME280;38103;42.776;23.112;2022-09-13T13:06:51;93719.50;;;20.53;42.42
52105;BME280;38103;42.776;23.112;2022-09-13T13:09:27;93738.06;;;20.63;42.48
52105;BME280;38103;42.776;23.112;2022-09-13T13:11:56;93751.19;;;20.65;43.89
52105;BME280;38103;42.776;23.112;2022-09-13T13:23:30;93746.00;;;20.69;45.60
52105;BME280;38103;42.776;23.112;2022-09-13T13:29:21;93745.66;;;20.61;44.23
52105;BME280;38103;42.776;23.112;2022-09-13T13:39:42;93748.19;;;20.43;44.84
52105;BME280;38103;42.776;23.112;2022-09-13T14:00:12;93755.66;;;20.18;41.74
52105;BME280;38103;42.776;23.112;2022-09-13T14:05:22;93752.50;;;20.16;40.99
52105;BME280;38103;42.776;23.112;2022-09-13T14:11:02;93762.03;;;20.08;42.41
52105;BME280;38103;42.776;23.112;2022-09-13T14:13:44;93701.06;;;19.58;41.64
52105;BME280;38103;42.776;23.112;2022-09-13T14:21:26;93749.00;;;19.59;42.12
52105;BME280;38103;42.776;23.112;2022-09-13T14:26:38;93766.56;;;19.51;41.86
52105;BME280;38103;42.776;23.112;2022-09-13T14:29:07;93762.69;;;19.43;42.54
52105;BME280;38103;42.776;23.112;2022-09-13T14:31:33;93761.63;;;19.45;42.88
52105;BME280;38103;42.776;23.112;2022-09-13T14:33:59;93762.19;;;19.41;42.57
52105;BME280;38103;42.776;23.112;2022-09-13T14:36:24;93754.41;;;19.26;41.97
52105;BME280;38103;42.776;23.112;2022-09-13T14:38:56;93759.94;;;19.15;41.54
52105;BME280;38103;42.776;23.112;2022-09-13T14:41:33;93762.06;;;19.18;43.47
52105;BME280;38103;42.776;23.112;2022-09-13T14:44:21;93761.91;;;19.09;43.91
52105;BME280;38103;42.776;23.112;2022-09-13T14:47:05;93755.25;;;19.07;44.14
52105;BME280;38103;42.776;23.112;2022-09-13T14:49:40;93768.81;;;18.96;44.41
52105;BME280;38103;42.776;23.112;2022-09-13T14:52:14;93760.06;;;18.91;45.08
52105;BME280;38103;42.776;23.112;2022-09-13T14:54:48;93776.72;;;18.87;44.75
52105;BME280;38103;42.776;23.112;2022-09-13T14:57:33;93768.19;;;18.85;45.49
52105;BME280;38103;42.776;23.112;2022-09-13T15:00:06;93771.84;;;18.90;45.69
52105;BME280;38103;42.776;23.112;2022-09-13T15:02:37;93772.34;;;18.92;45.25
52105;BME280;38103;42.776;23.112;2022-09-13T15:05:13;93775.50;;;18.80;44.37
52105;BME280;38103;42.776;23.112;2022-09-13T15:07:39;93783.75;;;18.83;43.88
52105;BME280;38103;42.776;23.112;2022-09-13T15:12:35;93769.59;;;18.97;43.18
52105;BME280;38103;42.776;23.112;2022-09-13T15:15:37;93779.94;;;19.04;43.68
52105;BME280;38103;42.776;23.112;2022-09-13T15:23:36;93780.31;;;18.97;44.17
52105;BME280;38103;42.776;23.112;2022-09-13T15:26:11;93777.72;;;18.92;44.89
52105;BME280;38103;42.776;23.112;2022-09-13T15:31:17;93773.56;;;18.99;45.55
52105;BME280;38103;42.776;23.112;2022-09-13T15:33:43;93781.34;;;19.01;45.85
52105;BME280;38103;42.776;23.112;2022-09-13T15:39:16;93777.72;;;18.92;45.83
52105;BME280;38103;42.776;23.112;2022-09-13T15:41:54;93719.00;;;18.42;46.10
52105;BME280;38103;42.776;23.112;2022-09-13T15:44:21;93785.41;;;18.79;45.80
52105;BME280;38103;42.776;23.112;2022-09-13T15:46:54;93793.50;;;18.74;46.09
52105;BME280;38103;42.776;23.112;2022-09-13T15:49:23;93789.41;;;18.62;47.03
52105;BME280;38103;42.776;23.112;2022-09-13T15:52:09;93793.78;;;18.53;47.16
52105;BME280;38103;42.776;23.112;2022-09-13T15:54:39;93786.13;;;18.46;47.76
52105;BME280;38103;42.776;23.112;2022-09-13T15:57:08;93782.53;;;18.37;47.46
52105;BME280;38103;42.776;23.112;2022-09-13T15:59:34;93798.28;;;18.38;47.13
52105;BME280;38103;42.776;23.112;2022-09-13T16:02:01;93806.59;;;18.37;48.03
52105;BME280;38103;42.776;23.112;2022-09-13T16:04:36;93805.38;;;18.29;48.40
52105;BME280;38103;42.776;23.112;2022-09-13T16:07:02;93797.16;;;18.20;47.81
52105;BME280;38103;42.776;23.112;2022-09-13T16:09:27;93805.19;;;18.20;48.31
52105;BME280;38103;42.776;23.112;2022-09-13T16:11:52;93804.16;;;18.16;49.12
52105;BME280;38103;42.776;23.112;2022-09-13T16:14:18;93727.69;;;17.65;49.58
52105;BME280;38103;42.776;23.112;2022-09-13T16:16:44;93810.31;;;18.16;49.41
52105;BME280;38103;42.776;23.112;2022-09-13T16:19:18;93804.22;;;18.11;49.24
52105;BME280;38103;42.776;23.112;2022-09-13T16:21:44;93806.38;;;18.08;49.97
52105;BME280;38103;42.776;23.112;2022-09-13T16:24:09;93807.50;;;18.02;50.39
52105;BME280;38103;42.776;23.112;2022-09-13T16:26:35;93807.06;;;17.95;50.85
52105;BME280;38103;42.776;23.112;2022-09-13T16:29:00;93792.56;;;17.76;51.20
52105;BME280;38103;42.776;23.112;2022-09-13T16:31:28;93811.25;;;17.76;51.54
52105;BME280;38103;42.776;23.112;2022-09-13T16:33:54;93795.44;;;17.56;51.55
52105;BME280;38103;42.776;23.112;2022-09-13T16:36:19;93803.28;;;17.47;51.33
52105;BME280;38103;42.776;23.112;2022-09-13T16:38:45;93809.41;;;17.47;51.23
52105;BME280;38103;42.776;23.112;2022-09-13T16:41:10;93782.91;;;17.26;51.71
52105;BME280;38103;42.776;23.112;2022-09-13T16:43:36;93811.09;;;17.38;51.86
52105;BME280;38103;42.776;23.112;2022-09-13T16:46:06;93817.59;;;17.31;52.01
52105;BME280;38103;42.776;23.112;2022-09-13T16:48:32;93813.34;;;17.25;52.61
52105;BME280;38103;42.776;23.112;2022-09-13T16:51:04;93748.75;;;16.83;52.19
52105;BME280;38103;42.776;23.112;2022-09-13T16:53:36;93822.19;;;17.20;53.06
52105;BME280;38103;42.776;23.112;2022-09-13T16:56:09;93662.03;;;16.10;52.87
52105;BME280;38103;42.776;23.112;2022-09-13T16:58:42;93827.81;;;17.14;53.41
52105;BME280;38103;42.776;23.112;2022-09-13T17:01:10;93847.59;;;17.13;53.23